createdAt,value
2018-05-25T00:01:20.138Z,95421.22
2018-05-25T00:03:47.656Z,95424.17
2018-05-25T00:06:15.170Z,95428.05
2018-05-25T00:08:42.685Z,95421.14
2018-05-25T00:11:10.183Z,95424.45
2018-05-25T00:13:37.688Z,95414.66
2018-05-25T00:16:05.219Z,95430.19
2018-05-25T00:18:32.740Z,95412.64
2018-05-25T00:21:00.248Z,95429.13
2018-05-25T00:23:27.754Z,95423.93
2018-05-25T00:25:55.266Z,95428.86
2018-05-25T00:28:22.768Z,95428.89
2018-05-25T00:30:50.357Z,95423.13
2018-05-25T00:33:17.907Z,95419.69
2018-05-25T00:35:45.420Z,95426.83
2018-05-25T00:38:12.947Z,95430.48
2018-05-25T00:40:40.455Z,95426.91
2018-05-25T00:43:07.948Z,95427.44
2018-05-25T00:45:35.455Z,95430.08
2018-05-25T00:48:02.954Z,95427.43
2018-05-25T00:50:30.467Z,95422.49
2018-05-25T00:52:58.025Z,95420.27
2018-05-25T00:55:37.347Z,95421.61
2018-05-25T00:58:04.850Z,95421.81
2018-05-25T01:00:32.394Z,95415.50
2018-05-25T01:02:59.909Z,95396.28
2018-05-25T01:05:27.473Z,95419.27
2018-05-25T01:07:54.988Z,95419.48
2018-05-25T01:10:22.504Z,95419.65
2018-05-25T01:12:50.007Z,95421.88
2018-05-25T01:15:17.572Z,95415.38
2018-05-25T01:17:45.095Z,95412.83
2018-05-25T01:20:12.642Z,95398.69
2018-05-25T01:22:40.162Z,95409.77
2018-05-25T01:25:07.670Z,95406.45
2018-05-25T01:27:35.213Z,95408.18
2018-05-25T01:30:03.488Z,95390.73
2018-05-25T01:32:30.995Z,95414.62
2018-05-25T01:34:58.487Z,95411.97
2018-05-25T01:37:25.979Z,95407.34
2018-05-25T01:39:53.483Z,95411.36
2018-05-25T01:42:20.983Z,95413.41
2018-05-25T01:44:48.492Z,95414.20
2018-05-25T01:47:15.991Z,95410.69
2018-05-25T01:49:43.499Z,95413.49
2018-05-25T01:52:11.036Z,95417.80
2018-05-25T01:54:38.592Z,95417.26
2018-05-25T01:57:06.131Z,95414.41
2018-05-25T01:59:33.719Z,95427.23
2018-05-25T02:02:01.238Z,95403.66
2018-05-25T02:04:29.055Z,95411.88
2018-05-25T02:06:56.564Z,95401.27
2018-05-25T02:09:24.076Z,95414.47
2018-05-25T02:11:51.634Z,95417.33
2018-05-25T02:14:19.191Z,95417.52
2018-05-25T02:16:46.699Z,95417.41
2018-05-25T02:19:14.292Z,95412.37
2018-05-25T02:21:41.791Z,95415.92
2018-05-25T02:24:09.299Z,95419.09
2018-05-25T02:26:36.820Z,95418.73
2018-05-25T02:29:04.339Z,95415.16
2018-05-25T02:31:31.851Z,95417.29
2018-05-25T02:33:59.347Z,95415.92
2018-05-25T02:36:26.895Z,95419.94
2018-05-25T02:38:54.394Z,95422.92
2018-05-25T02:41:21.912Z,95419.03
2018-05-25T02:43:49.426Z,95423.28
2018-05-25T02:46:16.935Z,95416.59
2018-05-25T02:48:44.479Z,95425.45
2018-05-25T02:51:12.350Z,95425.80
2018-05-25T02:53:39.854Z,95431.11
2018-05-25T02:56:07.364Z,95430.28
2018-05-25T02:58:34.936Z,95431.84
2018-05-25T03:01:02.451Z,95426.61
2018-05-25T03:03:29.968Z,95430.27
2018-05-25T03:05:57.481Z,95433.67
2018-05-25T03:08:25.006Z,95440.34
2018-05-25T03:10:52.506Z,95433.58
2018-05-25T03:13:20.014Z,95441.94
2018-05-25T03:15:47.519Z,95448.84
2018-05-25T03:18:15.030Z,95444.70
2018-05-25T03:20:42.530Z,95448.69
2018-05-25T03:23:10.036Z,95443.55
2018-05-25T03:25:37.585Z,95442.95
2018-05-25T03:28:05.107Z,95443.98
2018-05-25T03:30:32.619Z,95446.34
2018-05-25T03:33:00.122Z,95427.61
2018-05-25T03:35:27.633Z,95447.30
2018-05-25T03:37:55.140Z,95450.39
2018-05-25T03:40:22.645Z,95446.30
2018-05-25T03:42:50.159Z,95453.16
2018-05-25T03:45:17.663Z,95452.59
2018-05-25T03:47:45.177Z,95454.73
2018-05-25T03:50:12.688Z,95451.91
2018-05-25T03:52:40.199Z,95456.50
2018-05-25T03:55:07.713Z,95463.52
2018-05-25T03:57:35.235Z,95462.55
2018-05-25T04:00:14.644Z,95459.33
2018-05-25T04:02:42.150Z,95457.94
2018-05-25T04:05:09.724Z,95456.31
2018-05-25T04:07:37.260Z,95466.84
2018-05-25T04:10:04.862Z,95470.44
2018-05-25T04:12:33.006Z,95465.66
2018-05-25T04:15:00.510Z,95446.27
2018-05-25T04:17:28.065Z,95471.38
2018-05-25T04:19:55.568Z,95462.15
2018-05-25T04:22:23.076Z,95464.80
2018-05-25T04:24:50.623Z,95464.77
2018-05-25T04:27:18.136Z,95467.02
2018-05-25T04:29:45.641Z,95467.42
2018-05-25T04:32:13.152Z,95467.98
2018-05-25T04:34:40.679Z,95467.63
2018-05-25T04:37:08.195Z,95455.91
2018-05-25T04:39:35.699Z,95473.38
2018-05-25T04:42:03.208Z,95466.36
2018-05-25T04:44:30.707Z,95463.75
2018-05-25T04:46:58.211Z,95462.24
2018-05-25T04:49:25.715Z,95461.18
2018-05-25T04:51:53.258Z,95470.97
2018-05-25T04:54:20.785Z,95477.71
2018-05-25T04:56:48.299Z,95462.55
2018-05-25T04:59:15.828Z,95463.97
2018-05-25T05:01:43.326Z,95457.47
2018-05-25T05:04:10.839Z,95460.98
2018-05-25T05:06:38.355Z,95453.67
2018-05-25T05:09:05.896Z,95458.89
2018-05-25T05:11:33.439Z,95456.31
2018-05-25T05:14:01.327Z,95456.61
2018-05-25T05:16:28.831Z,95461.11
2018-05-25T05:18:56.338Z,95448.67
2018-05-25T05:21:23.909Z,95457.59
2018-05-25T05:23:51.446Z,95458.77
2018-05-25T05:26:18.963Z,95460.70
2018-05-25T05:28:46.480Z,95456.03
2018-05-25T05:31:14.090Z,95464.60
2018-05-25T05:33:41.749Z,95461.25
2018-05-25T05:36:09.155Z,95467.88
2018-05-25T05:38:36.663Z,95465.83
2018-05-25T05:41:04.229Z,95462.84
2018-05-25T05:43:31.744Z,95462.53
2018-05-25T05:45:59.254Z,95470.83
2018-05-25T05:48:26.762Z,95468.66
2018-05-25T05:50:54.289Z,95480.14
2018-05-25T05:53:21.815Z,95478.88
2018-05-25T05:55:49.344Z,95476.31
2018-05-25T05:58:16.863Z,95473.56
2018-05-25T06:00:44.489Z,95473.09
2018-05-25T06:03:16.272Z,95479.62
2018-05-25T06:05:43.788Z,95470.28
2018-05-25T06:08:11.302Z,95475.90
2018-05-25T06:10:38.860Z,95474.15
2018-05-25T06:13:06.370Z,95474.66
2018-05-25T06:15:34.865Z,95471.80
2018-05-25T06:18:02.370Z,95476.96
2018-05-25T06:20:29.954Z,95473.89
2018-05-25T06:22:57.476Z,95476.52
2018-05-25T06:25:25.012Z,95475.78
2018-05-25T06:27:52.522Z,95473.13
2018-05-25T06:30:20.100Z,95472.39
2018-05-25T06:32:47.618Z,95459.34
2018-05-25T06:35:15.147Z,95474.91
2018-05-25T06:37:42.727Z,95470.51
2018-05-25T06:40:10.243Z,95477.17
2018-05-25T06:42:37.754Z,95473.86
2018-05-25T06:45:05.278Z,95465.13
2018-05-25T06:47:32.826Z,95468.11
2018-05-25T06:50:00.371Z,95468.03
2018-05-25T06:52:27.887Z,95466.44
2018-05-25T06:54:55.477Z,95458.81
2018-05-25T06:57:23.016Z,95465.86
2018-05-25T06:59:50.538Z,95462.78
2018-05-25T07:02:18.127Z,95457.41
2018-05-25T07:04:45.650Z,95449.00
2018-05-25T07:07:13.219Z,95454.98
2018-05-25T07:09:40.741Z,95465.15
2018-05-25T07:12:08.250Z,95448.34
2018-05-25T07:14:35.808Z,95452.58
2018-05-25T07:17:04.101Z,95449.53
2018-05-25T07:19:31.572Z,95446.00
2018-05-25T07:21:59.113Z,95449.73
2018-05-25T07:24:26.658Z,95439.08
2018-05-25T07:26:54.454Z,95445.66
2018-05-25T07:29:22.219Z,95446.40
2018-05-25T07:31:49.752Z,95436.29
2018-05-25T07:34:17.548Z,95457.16
2018-05-25T07:36:45.238Z,95448.37
2018-05-25T07:39:12.767Z,95447.82
2018-05-25T07:41:40.503Z,95441.53
2018-05-25T07:44:08.266Z,95442.66
2018-05-25T07:46:35.770Z,95441.88
2018-05-25T07:49:03.516Z,95437.64
2018-05-25T07:51:31.042Z,95435.37
2018-05-25T07:53:58.582Z,95429.33
2018-05-25T07:56:26.123Z,95435.84
2018-05-25T07:58:53.895Z,95440.69
2018-05-25T08:01:21.403Z,95433.06
2018-05-25T08:03:48.909Z,95426.56
2018-05-25T08:06:16.452Z,95426.95
2018-05-25T08:08:44.200Z,95428.89
2018-05-25T08:11:11.792Z,95423.39
2018-05-25T08:13:39.299Z,95424.50
2018-05-25T08:16:06.821Z,95423.47
2018-05-25T08:18:35.074Z,95422.20
2018-05-25T08:21:02.582Z,95420.27
2018-05-25T08:23:30.089Z,95416.38
2018-05-25T08:25:57.593Z,95423.00
2018-05-25T08:28:25.144Z,95419.80
2018-05-25T08:30:52.646Z,95395.12
2018-05-25T08:33:20.150Z,95418.04
2018-05-25T08:35:47.651Z,95415.58
2018-05-25T08:38:16.089Z,95401.57
2018-05-25T08:40:43.810Z,95410.41
2018-05-25T08:43:11.373Z,95405.94
2018-05-25T08:45:38.883Z,95409.32
2018-05-25T08:48:07.218Z,95409.47
2018-05-25T08:50:34.734Z,95414.08
2018-05-25T08:53:02.239Z,95412.80
2018-05-25T08:55:29.753Z,95419.64
2018-05-25T08:57:57.260Z,95422.13
2018-05-25T09:00:24.799Z,95418.68
2018-05-25T09:02:52.307Z,95406.63
2018-05-25T09:05:19.839Z,95410.25
2018-05-25T09:07:47.355Z,95411.71
2018-05-25T09:10:14.856Z,95406.34
2018-05-25T09:12:42.620Z,95375.52
2018-05-25T09:15:10.152Z,95404.85
2018-05-25T09:17:37.753Z,95409.40
2018-05-25T09:20:05.282Z,95405.92
2018-05-25T09:22:32.791Z,95404.57
2018-05-25T09:25:00.310Z,95401.16
2018-05-25T09:27:28.684Z,95399.21
2018-05-25T09:29:56.435Z,95382.66
2018-05-25T09:32:24.415Z,95394.59
2018-05-25T09:34:51.931Z,95396.86
2018-05-25T09:37:19.847Z,95385.03
2018-05-25T09:39:47.362Z,95387.61
2018-05-25T09:42:14.908Z,95366.36
2018-05-25T09:44:42.427Z,95369.55
2018-05-25T09:47:09.999Z,95370.61
2018-05-25T09:49:37.762Z,95378.14
2018-05-25T09:52:05.288Z,95374.69
2018-05-25T09:54:33.057Z,95364.05
2018-05-25T09:57:00.910Z,95367.05
2018-05-25T09:59:29.359Z,95377.17
2018-05-25T10:01:56.884Z,95368.94
2018-05-25T10:04:24.420Z,95365.26
2018-05-25T10:06:51.973Z,95370.09
2018-05-25T10:09:19.486Z,95351.34
2018-05-25T10:11:47.024Z,95367.37
2018-05-25T10:14:14.527Z,95354.87
2018-05-25T10:16:42.054Z,95340.47
2018-05-25T10:19:09.571Z,95344.30
2018-05-25T10:21:37.295Z,95345.95
2018-05-25T10:24:05.443Z,95327.80
2018-05-25T10:26:32.947Z,95345.33
2018-05-25T10:29:01.550Z,95342.03
2018-05-25T10:31:29.081Z,95328.23
2018-05-25T10:33:57.633Z,95328.87
2018-05-25T10:36:25.955Z,95340.80
2018-05-25T10:38:53.746Z,95343.55
2018-05-25T10:41:21.386Z,95336.20
2018-05-25T10:43:49.152Z,95340.94
2018-05-25T10:46:16.663Z,95332.41
2018-05-25T10:48:44.235Z,95337.97
2018-05-25T10:51:11.751Z,95332.33
2018-05-25T10:53:39.258Z,95332.02
2018-05-25T10:56:06.804Z,95334.88
2018-05-25T10:58:34.310Z,95328.45
2018-05-25T11:01:02.786Z,95332.95
2018-05-25T11:03:30.323Z,95330.39
2018-05-25T11:05:58.096Z,95307.66
2018-05-25T11:08:25.600Z,95326.86
2018-05-25T11:10:53.369Z,95324.81
2018-05-25T11:13:20.879Z,95295.78
2018-05-25T11:15:48.431Z,95311.84
2018-05-25T11:18:16.056Z,95320.61
2018-05-25T11:20:43.883Z,95322.21
2018-05-25T11:23:11.431Z,95320.41
2018-05-25T11:25:38.935Z,95314.67
2018-05-25T11:28:06.702Z,95320.99
2018-05-25T11:30:34.531Z,95324.77
2018-05-25T11:33:02.047Z,95327.56
2018-05-25T11:35:29.622Z,95311.59
2018-05-25T11:37:57.218Z,95316.41
2018-05-25T11:40:24.995Z,95289.61
2018-05-25T11:42:52.951Z,95320.77
2018-05-25T11:45:20.464Z,95323.97
2018-05-25T11:47:48.212Z,95313.35
2018-05-25T11:50:15.795Z,95325.44
2018-05-25T11:52:43.335Z,95322.34
2018-05-25T11:55:10.947Z,95323.16
2018-05-25T11:57:38.521Z,95341.09
2018-05-25T12:00:06.100Z,95334.00
2018-05-25T12:02:34.402Z,95338.84
2018-05-25T12:05:01.935Z,95375.78
2018-05-25T12:07:29.450Z,95420.89
2018-05-25T12:09:56.978Z,95410.36
2018-05-25T12:12:24.487Z,95450.80
2018-05-25T12:14:52.003Z,95420.77
2018-05-25T12:17:19.503Z,95413.86
2018-05-25T22:24:29.095Z,95691.71
2018-05-25T22:26:56.617Z,95692.13
2018-05-25T22:29:24.123Z,95684.98
2018-05-25T22:31:51.626Z,95681.17
2018-05-25T22:34:19.126Z,95687.95
2018-05-25T22:36:46.633Z,95692.47
2018-05-25T22:39:14.215Z,95693.97
2018-05-25T22:41:41.742Z,95685.37
2018-05-25T22:44:21.206Z,95692.55
2018-05-25T22:47:00.577Z,95696.97
2018-05-25T22:49:39.860Z,95698.88
2018-05-25T22:55:17.311Z,95690.92
2018-05-25T22:57:44.823Z,95696.59
2018-05-25T23:00:12.336Z,95697.56
2018-05-25T23:02:39.839Z,95695.37
2018-05-25T23:05:07.346Z,95694.42
2018-05-25T23:07:34.849Z,95697.06
2018-05-25T23:10:02.491Z,95696.19
2018-05-25T23:12:30.008Z,95695.91
2018-05-25T23:14:57.526Z,95627.43
2018-05-25T23:17:25.073Z,95704.55
2018-05-25T23:19:52.599Z,95709.59
2018-05-25T23:22:20.152Z,95710.21
2018-05-25T23:24:47.668Z,95711.41
2018-05-25T23:27:15.211Z,95703.47
2018-05-25T23:29:42.720Z,95705.61
2018-05-25T23:32:10.237Z,95703.20
2018-05-25T23:34:37.809Z,95702.36
2018-05-25T23:37:05.297Z,95704.33
2018-05-25T23:39:32.824Z,95699.55
2018-05-25T23:42:00.332Z,95688.47
2018-05-25T23:44:27.845Z,95704.78
2018-05-25T23:46:55.366Z,95686.87
2018-05-25T23:49:22.925Z,95698.88
2018-05-25T23:51:50.437Z,95701.47
2018-05-25T23:54:17.985Z,95690.03
2018-05-25T23:56:45.517Z,95682.49
2018-05-25T23:59:13.028Z,95678.91
